Tetide — IVTN — position and weather

sailwx.info

Track history (hours):
 
Tides and Currents Weather Stations Pressure Air Temp Water Temp Dewpoint Dewpoint Depression Visibility Wind Speed Wind Dir Waves Ship Positions

Tetide

Last reported at 2015-Apr-20 23:11 UTC. Time now 2015-Apr-21 01:27 UTC.
Position N 41°15' E 013°37'.

Length 70 m; draft 3.6 m.

Type: Passenger vessel. MMSI: 247043100.

Date/timePositionNaut miles runAvg speedWind from/ knotsBaromVisibWave heightAir tempDewpointWater temp
2015-Apr-20 23:11N 41°15' E 013°37'0 0.0
2015-Apr-20 22:31N 41°15' E 013°37'0 0.0
2015-Apr-20 21:13N 41°15' E 013°37'0 0.0
2015-Apr-20 20:15N 41°15' E 013°37'0 0.0
2015-Apr-20 19:13N 41°15' E 013°37'0 0.0
2015-Apr-20 18:33N 41°15' E 013°37'0 0.0
2015-Apr-20 17:20N 41°15' E 013°37'0 0.0
2015-Apr-20 16:31N 41°15' E 013°37'0 0.0
2015-Apr-20 15:33N 41°15' E 013°37'6 5.6
2015-Apr-20 14:32N 41°10' E 013°36'1514.8
2015-Apr-20 13:33N 40°56' E 013°29'8 8.4
2015-Apr-20 12:34N 40°48' E 013°26'0 0.0
2015-Apr-20 11:32N 40°48' E 013°26'0 0.0
2015-Apr-20 10:30N 40°48' E 013°26'0 0.0
2015-Apr-20 09:26N 40°48' E 013°26'1813.0
2015-Apr-20 08:05N 41°05' E 013°32'11 6.6
2015-Apr-20 06:25N 41°15' E 013°37'2211.8
2015-Apr-20 04:32N 41°01' E 013°13'13 1.2
2015-Apr-19 18:07N 40°54' E 012°59'1314.3
2015-Apr-19 17:13N 41°02' E 013°13'19 6.9
2015-Apr-19 14:31N 41°09' E 013°36'1414.8
2015-Apr-19 13:33N 40°56' E 013°29'8 7.9
2015-Apr-19 12:32N 40°48' E 013°26'0 0.0
2015-Apr-19 11:32N 40°48' E 013°26'0 0.0
2015-Apr-19 10:11N 40°48' E 013°26'0 0.0
2015-Apr-19 09:25N 40°48' E 013°26'1213.0
2015-Apr-19 08:30N 40°59' E 013°30'17 8.5
2015-Apr-19 06:32N 41°15' E 013°37'0 0.0
2015-Apr-18 19:32N 41°15' E 013°37'0 0.0
2015-Apr-18 16:08N 41°15' E 013°37'12 6.1
2015-Apr-18 14:06N 41°03' E 013°34'814.9
2015-Apr-18 13:33N 40°55' E 013°30'8 2.0
2015-Apr-18 09:30N 40°48' E 013°26'1313.1
2015-Apr-18 08:32N 40°59' E 013°34'10 2.9
2015-Apr-18 05:13N 41°07' E 013°26'1 0.1
2015-Apr-17 16:26N 41°08' E 013°26'8 3.9
2015-Apr-17 14:31N 41°10' E 013°35'1515.1
2015-Apr-17 13:33N 40°56' E 013°29'8 7.9
2015-Apr-17 12:30N 40°48' E 013°26'0 0.0
2015-Apr-17 11:17N 40°48' E 013°26'0 0.0
2015-Apr-17 10:33N 40°48' E 013°26'0 0.0
2015-Apr-17 09:32N 40°48' E 013°26'1111.1
2015-Apr-17 08:32N 40°59' E 013°30'1414.4
2015-Apr-17 07:33N 41°12' E 013°36'3 3.0
2015-Apr-17 06:27N 41°15' E 013°37'0 0.0
2015-Apr-17 04:29N 41°15' E 013°37'0 0.0
2015-Apr-17 03:33N 41°15' E 013°37'0 0.0
2015-Apr-17 02:11N 41°15' E 013°37'0 0.0
2015-Apr-17 01:17N 41°15' E 013°37'0 0.0
2015-Apr-16 23:34N 41°15' E 013°37'0 0.0
2015-Apr-16 22:33N 41°15' E 013°37'0 0.0
2015-Apr-16 21:34N 41°15' E 013°37'0 0.0
2015-Apr-16 20:32N 41°15' E 013°37'0 0.0
2015-Apr-16 19:30N 41°15' E 013°37'0 0.0
2015-Apr-16 17:31N 41°15' E 013°37'0 0.0
2015-Apr-16 16:33N 41°15' E 013°37'0 0.0
2015-Apr-16 15:34N 41°15' E 013°37'6 5.8
2015-Apr-16 14:31N 41°09' E 013°36'1414.8
2015-Apr-16 13:33N 40°56' E 013°29'7 1.3
2015-Apr-16 08:33N 41°02' E 013°31'27 2.7
2015-Apr-15 22:33N 40°54' E 012°58'0 0.0
2015-Apr-15 21:34N 40°54' E 012°58'0 0.0
2015-Apr-15 20:32N 40°54' E 012°58'0 0.0
2015-Apr-15 19:33N 40°54' E 012°58'0 0.0
2015-Apr-15 18:33N 40°54' E 012°58'9 9.0
2015-Apr-15 17:34N 40°59' E 013°08'1914.7
2015-Apr-15 16:17N 41°09' E 013°29'911.8
2015-Apr-15 15:31N 41°15' E 013°37'6 6.4
2015-Apr-15 14:33N 41°09' E 013°36'1514.7
2015-Apr-15 13:33N 40°55' E 013°29'8 5.2
2015-Apr-15 12:03N 40°48' E 013°26'0 0.0
2015-Apr-15 10:21N 40°48' E 013°26'1 0.8
2015-Apr-15 09:19N 40°49' E 013°26'1214.1
2015-Apr-15 08:31N 40°60' E 013°30'1414.5
2015-Apr-15 07:30N 41°13' E 013°37'2 1.9
2015-Apr-15 06:28N 41°15' E 013°37'0 0.0
2015-Apr-15 05:21N 41°15' E 013°37'0 0.0
2015-Apr-14 15:07N 41°15' E 013°37'2113.1
2015-Apr-14 13:33N 40°56' E 013°29'8 1.9
2015-Apr-14 09:25N 40°48' E 013°26'1413.5
2015-Apr-14 08:23N 41°01' E 013°31'1411.1
2015-Apr-14 07:04N 41°15' E 013°37'15 7.7
2015-Apr-14 05:10N 41°05' E 013°23'13 1.2
2015-Apr-13 17:33N 40°58' E 013°08'1414.4
2015-Apr-13 16:33N 41°06' E 013°24'1413.5
2015-Apr-13 15:32N 41°15' E 013°37'6 5.9
2015-Apr-13 14:33N 41°09' E 013°36'1514.7
2015-Apr-13 13:33N 40°56' E 013°30'8 7.0
2015-Apr-13 12:22N 40°48' E 013°26'0 0.0
2015-Apr-13 11:25N 40°48' E 013°26'0 0.0
2015-Apr-13 10:33N 40°48' E 013°26'0 0.0
2015-Apr-13 09:33N 40°48' E 013°26'1211.8
2015-Apr-13 08:33N 40°59' E 013°30'1614.1
2015-Apr-13 07:27N 41°14' E 013°37'1 1.5
2015-Apr-13 06:29N 41°15' E 013°37'0 0.0
2015-Apr-13 04:25N 41°15' E 013°37'0 0.0
2015-Apr-13 03:03N 41°15' E 013°37'0 0.0
2015-Apr-13 02:33N 41°15' E 013°37'0 0.0
2015-Apr-13 01:29N 41°15' E 013°37'0 0.0
2015-Apr-13 00:33N 41°15' E 013°37'0 0.0
2015-Apr-12 23:29N 41°15' E 013°37'0 0.0
2015-Apr-12 22:32N 41°15' E 013°37'0 0.0
2015-Apr-12 21:31N 41°15' E 013°37'0 0.0
2015-Apr-12 20:18N 41°15' E 013°37'0 0.0
2015-Apr-12 19:19N 41°15' E 013°37'0 0.0
2015-Apr-12 17:30N 41°15' E 013°37'0 0.1
2015-Apr-12 16:33N 41°15' E 013°37'1413.8
2015-Apr-12 15:33N 41°02' E 013°34'1414.1
2015-Apr-12 14:32N 40°49' E 013°26'1 0.5
2015-Apr-12 13:31N 40°48' E 013°26'0 0.0
2015-Apr-12 12:25N 40°48' E 013°26'0 0.0
2015-Apr-12 11:27N 40°48' E 013°26'9 4.5
2015-Apr-12 09:24N 40°57' E 013°29'1314.2
2015-Apr-12 08:27N 41°10' E 013°35'2 1.6
2015-Apr-12 07:18N 41°11' E 013°35'1314.5
2015-Apr-12 06:27N 41°04' E 013°22'8 0.5
2015-Apr-11 14:07N 41°04' E 013°33'814.9
2015-Apr-11 13:33N 40°56' E 013°29'8 6.9
2015-Apr-11 12:21N 40°48' E 013°26'0 0.0
2015-Apr-11 11:24N 40°48' E 013°26'0 0.0
2015-Apr-11 09:22N 40°48' E 013°26'1113.5
2015-Apr-11 08:34N 40°58' E 013°30'18 7.5
2015-Apr-11 06:13N 41°15' E 013°37'0 0.0
2015-Apr-11 04:06N 41°15' E 013°37'0 0.0
2015-Apr-11 03:29N 41°15' E 013°37'0 0.0
2015-Apr-11 02:31N 41°15' E 013°37'0 0.0
2015-Apr-11 01:22N 41°15' E 013°37'0 0.0
2015-Apr-10 23:18N 41°15' E 013°37'  
Track history (hours):
 
Tides and Currents Weather Stations Pressure Air Temp Water Temp Dewpoint Dewpoint Depression Visibility Wind Speed Wind Dir Waves Ship Positions

Tetide

Last reported at 2015-Apr-20 23:11 UTC. Time now 2015-Apr-21 01:27 UTC.
Position N 41°15' E 013°37'.

Length 70 m; draft 3.6 m.

Type: Passenger vessel. MMSI: 247043100.

Date/timePositionNaut miles runAvg speedWind from/ knotsBaromVisibWave heightAir tempDewpointWater temp
2015-Apr-20 23:11N 41°15' E 013°37'0 0.0
2015-Apr-20 22:31N 41°15' E 013°37'0 0.0
2015-Apr-20 21:13N 41°15' E 013°37'0 0.0
2015-Apr-20 20:15N 41°15' E 013°37'0 0.0
2015-Apr-20 19:13N 41°15' E 013°37'0 0.0
2015-Apr-20 18:33N 41°15' E 013°37'0 0.0
2015-Apr-20 17:20N 41°15' E 013°37'0 0.0
2015-Apr-20 16:31N 41°15' E 013°37'0 0.0
2015-Apr-20 15:33N 41°15' E 013°37'6 5.6
2015-Apr-20 14:32N 41°10' E 013°36'1514.8
2015-Apr-20 13:33N 40°56' E 013°29'8 8.4
2015-Apr-20 12:34N 40°48' E 013°26'0 0.0
2015-Apr-20 11:32N 40°48' E 013°26'0 0.0
2015-Apr-20 10:30N 40°48' E 013°26'0 0.0
2015-Apr-20 09:26N 40°48' E 013°26'1813.0
2015-Apr-20 08:05N 41°05' E 013°32'11 6.6
2015-Apr-20 06:25N 41°15' E 013°37'2211.8
2015-Apr-20 04:32N 41°01' E 013°13'13 1.2
2015-Apr-19 18:07N 40°54' E 012°59'1314.3
2015-Apr-19 17:13N 41°02' E 013°13'19 6.9
2015-Apr-19 14:31N 41°09' E 013°36'1414.8
2015-Apr-19 13:33N 40°56' E 013°29'8 7.9
2015-Apr-19 12:32N 40°48' E 013°26'0 0.0
2015-Apr-19 11:32N 40°48' E 013°26'0 0.0
2015-Apr-19 10:11N 40°48' E 013°26'0 0.0
2015-Apr-19 09:25N 40°48' E 013°26'1213.0
2015-Apr-19 08:30N 40°59' E 013°30'17 8.5
2015-Apr-19 06:32N 41°15' E 013°37'0 0.0
2015-Apr-18 19:32N 41°15' E 013°37'0 0.0
2015-Apr-18 16:08N 41°15' E 013°37'12 6.1
2015-Apr-18 14:06N 41°03' E 013°34'814.9
2015-Apr-18 13:33N 40°55' E 013°30'8 2.0
2015-Apr-18 09:30N 40°48' E 013°26'1313.1
2015-Apr-18 08:32N 40°59' E 013°34'10 2.9
2015-Apr-18 05:13N 41°07' E 013°26'1 0.1
2015-Apr-17 16:26N 41°08' E 013°26'8 3.9
2015-Apr-17 14:31N 41°10' E 013°35'1515.1
2015-Apr-17 13:33N 40°56' E 013°29'8 7.9
2015-Apr-17 12:30N 40°48' E 013°26'0 0.0
2015-Apr-17 11:17N 40°48' E 013°26'0 0.0
2015-Apr-17 10:33N 40°48' E 013°26'0 0.0
2015-Apr-17 09:32N 40°48' E 013°26'1111.1
2015-Apr-17 08:32N 40°59' E 013°30'1414.4
2015-Apr-17 07:33N 41°12' E 013°36'3 3.0
2015-Apr-17 06:27N 41°15' E 013°37'0 0.0
2015-Apr-17 04:29N 41°15' E 013°37'0 0.0
2015-Apr-17 03:33N 41°15' E 013°37'0 0.0
2015-Apr-17 02:11N 41°15' E 013°37'0 0.0
2015-Apr-17 01:17N 41°15' E 013°37'0 0.0
2015-Apr-16 23:34N 41°15' E 013°37'0 0.0
2015-Apr-16 22:33N 41°15' E 013°37'0 0.0
2015-Apr-16 21:34N 41°15' E 013°37'0 0.0
2015-Apr-16 20:32N 41°15' E 013°37'0 0.0
2015-Apr-16 19:30N 41°15' E 013°37'0 0.0
2015-Apr-16 17:31N 41°15' E 013°37'0 0.0
2015-Apr-16 16:33N 41°15' E 013°37'0 0.0
2015-Apr-16 15:34N 41°15' E 013°37'6 5.8
2015-Apr-16 14:31N 41°09' E 013°36'1414.8
2015-Apr-16 13:33N 40°56' E 013°29'7 1.3
2015-Apr-16 08:33N 41°02' E 013°31'27 2.7
2015-Apr-15 22:33N 40°54' E 012°58'0 0.0
2015-Apr-15 21:34N 40°54' E 012°58'0 0.0
2015-Apr-15 20:32N 40°54' E 012°58'0 0.0
2015-Apr-15 19:33N 40°54' E 012°58'0 0.0
2015-Apr-15 18:33N 40°54' E 012°58'9 9.0
2015-Apr-15 17:34N 40°59' E 013°08'1914.7
2015-Apr-15 16:17N 41°09' E 013°29'911.8
2015-Apr-15 15:31N 41°15' E 013°37'6 6.4
2015-Apr-15 14:33N 41°09' E 013°36'1514.7
2015-Apr-15 13:33N 40°55' E 013°29'8 5.2
2015-Apr-15 12:03N 40°48' E 013°26'0 0.0
2015-Apr-15 10:21N 40°48' E 013°26'1 0.8
2015-Apr-15 09:19N 40°49' E 013°26'1214.1
2015-Apr-15 08:31N 40°60' E 013°30'1414.5
2015-Apr-15 07:30N 41°13' E 013°37'2 1.9
2015-Apr-15 06:28N 41°15' E 013°37'0 0.0
2015-Apr-15 05:21N 41°15' E 013°37'0 0.0
2015-Apr-14 15:07N 41°15' E 013°37'2113.1
2015-Apr-14 13:33N 40°56' E 013°29'8 1.9
2015-Apr-14 09:25N 40°48' E 013°26'1413.5
2015-Apr-14 08:23N 41°01' E 013°31'1411.1
2015-Apr-14 07:04N 41°15' E 013°37'15 7.7
2015-Apr-14 05:10N 41°05' E 013°23'13 1.2
2015-Apr-13 17:33N 40°58' E 013°08'1414.4
2015-Apr-13 16:33N 41°06' E 013°24'1413.5
2015-Apr-13 15:32N 41°15' E 013°37'6 5.9
2015-Apr-13 14:33N 41°09' E 013°36'1514.7
2015-Apr-13 13:33N 40°56' E 013°30'8 7.0
2015-Apr-13 12:22N 40°48' E 013°26'0 0.0
2015-Apr-13 11:25N 40°48' E 013°26'0 0.0
2015-Apr-13 10:33N 40°48' E 013°26'0 0.0
2015-Apr-13 09:33N 40°48' E 013°26'1211.8
2015-Apr-13 08:33N 40°59' E 013°30'1614.1
2015-Apr-13 07:27N 41°14' E 013°37'1 1.5
2015-Apr-13 06:29N 41°15' E 013°37'0 0.0
2015-Apr-13 04:25N 41°15' E 013°37'0 0.0
2015-Apr-13 03:03N 41°15' E 013°37'0 0.0
2015-Apr-13 02:33N 41°15' E 013°37'0 0.0
2015-Apr-13 01:29N 41°15' E 013°37'0 0.0
2015-Apr-13 00:33N 41°15' E 013°37'0 0.0
2015-Apr-12 23:29N 41°15' E 013°37'0 0.0
2015-Apr-12 22:32N 41°15' E 013°37'0 0.0
2015-Apr-12 21:31N 41°15' E 013°37'0 0.0
2015-Apr-12 20:18N 41°15' E 013°37'0 0.0
2015-Apr-12 19:19N 41°15' E 013°37'0 0.0
2015-Apr-12 17:30N 41°15' E 013°37'0 0.1
2015-Apr-12 16:33N 41°15' E 013°37'1413.8
2015-Apr-12 15:33N 41°02' E 013°34'1414.1
2015-Apr-12 14:32N 40°49' E 013°26'1 0.5
2015-Apr-12 13:31N 40°48' E 013°26'0 0.0
2015-Apr-12 12:25N 40°48' E 013°26'0 0.0
2015-Apr-12 11:27N 40°48' E 013°26'9 4.5
2015-Apr-12 09:24N 40°57' E 013°29'1314.2
2015-Apr-12 08:27N 41°10' E 013°35'2 1.6
2015-Apr-12 07:18N 41°11' E 013°35'1314.5
2015-Apr-12 06:27N 41°04' E 013°22'8 0.5
2015-Apr-11 14:07N 41°04' E 013°33'814.9
2015-Apr-11 13:33N 40°56' E 013°29'8 6.9
2015-Apr-11 12:21N 40°48' E 013°26'0 0.0
2015-Apr-11 11:24N 40°48' E 013°26'0 0.0
2015-Apr-11 09:22N 40°48' E 013°26'1113.5
2015-Apr-11 08:34N 40°58' E 013°30'18 7.5
2015-Apr-11 06:13N 41°15' E 013°37'0 0.0
2015-Apr-11 04:06N 41°15' E 013°37'0 0.0
2015-Apr-11 03:29N 41°15' E 013°37'0 0.0
2015-Apr-11 02:31N 41°15' E 013°37'0 0.0
2015-Apr-11 01:22N 41°15' E 013°37'0 0.0
2015-Apr-10 23:18N 41°15' E 013°37'  

Dump ship's entire track history